BTR9312 LIMJ-LICA
Flight info
| Callsign | BTR9312 |
|---|---|
| Flight time | 1h 20m |
| Altitude | 33000 |
| Route | UNIT6F UNITA L50 KONER DCT BAKRO DCT ELB DCT SOR DCT POLIT DCT EVINO M620 ARBUM |
| Aircraft | B738/M-SDE2E3FGHIRWXY/LB1 |
Departure
| Time | 2026-04-18 07:14 |
|---|---|
| Airport | Genoa Cristoforo Colombo Airport (LIMJ) |
Arrival
| Time | 2026-04-18 08:35 |
|---|---|
| Airport | Lamezia Terme Sant'Eufemia International Airport (LICA) |
| Time | Latitude | Longitude | Altitude | Speed | Heading |
|---|---|---|---|---|---|
| 2026-04-18 06:40 | 44.41313 | 8.84867 | 19 ft | 0 kts | 194° |
| 2026-04-18 07:06 | 44.41314 | 8.84867 | 19 ft | 1 kts | 194° |
| 2026-04-18 07:06 | 44.41329 | 8.84872 | 19 ft | 2 kts | 194° |
| 2026-04-18 07:07 | 44.41345 | 8.84878 | 21 ft | 2 kts | 194° |
| 2026-04-18 07:07 | 44.41361 | 8.84883 | 21 ft | 2 kts | 194° |
| 2026-04-18 07:07 | 44.41376 | 8.84889 | 23 ft | 2 kts | 194° |
| 2026-04-18 07:07 | 44.41382 | 8.84890 | 22 ft | 0 kts | 194° |
| 2026-04-18 07:09 | 44.41380 | 8.84891 | 19 ft | 1 kts | 186° |
| 2026-04-18 07:09 | 44.41355 | 8.84893 | 19 ft | 6 kts | 174° |
| 2026-04-18 07:09 | 44.41296 | 8.84918 | 21 ft | 11 kts | 167° |
| 2026-04-18 07:10 | 44.41225 | 8.84867 | 19 ft | 15 kts | 263° |
| 2026-04-18 07:10 | 44.41248 | 8.84706 | 19 ft | 19 kts | 284° |
| 2026-04-18 07:10 | 44.41286 | 8.84511 | 20 ft | 23 kts | 285° |
| 2026-04-18 07:10 | 44.41328 | 8.84297 | 20 ft | 23 kts | 285° |
| 2026-04-18 07:11 | 44.41368 | 8.84087 | 18 ft | 22 kts | 285° |
| 2026-04-18 07:11 | 44.41408 | 8.83883 | 18 ft | 21 kts | 285° |
| 2026-04-18 07:11 | 44.41447 | 8.83686 | 18 ft | 21 kts | 285° |
| 2026-04-18 07:11 | 44.41484 | 8.83494 | 18 ft | 20 kts | 285° |
| 2026-04-18 07:12 | 44.41521 | 8.83308 | 18 ft | 19 kts | 285° |
| 2026-04-18 07:12 | 44.41556 | 8.83129 | 18 ft | 19 kts | 285° |
| 2026-04-18 07:12 | 44.41590 | 8.82954 | 19 ft | 18 kts | 285° |
| 2026-04-18 07:12 | 44.41622 | 8.82786 | 17 ft | 18 kts | 285° |
| 2026-04-18 07:13 | 44.41654 | 8.82626 | 17 ft | 13 kts | 285° |
| 2026-04-18 07:13 | 44.41639 | 8.82517 | 16 ft | 13 kts | 218° |
| 2026-04-18 07:13 | 44.41541 | 8.82493 | 14 ft | 15 kts | 137° |
| 2026-04-18 07:13 | 44.41480 | 8.82751 | 17 ft | 61 kts | 106° |
| 2026-04-18 07:14 | 44.41290 | 8.83725 | 18 ft | 141 kts | 106° |
| 2026-04-18 07:14 | 44.40981 | 8.85208 | 455 ft | 166 kts | 105° |
| 2026-04-18 07:14 | 44.40601 | 8.86743 | 1433 ft | 172 kts | 123° |
| 2026-04-18 07:14 | 44.39618 | 8.87743 | 2146 ft | 189 kts | 160° |
| 2026-04-18 07:15 | 44.38359 | 8.88376 | 2839 ft | 197 kts | 159° |
| 2026-04-18 07:15 | 44.37050 | 8.89063 | 3462 ft | 203 kts | 159° |
| 2026-04-18 07:15 | 44.35716 | 8.89774 | 4070 ft | 207 kts | 159° |
| 2026-04-18 07:15 | 44.34368 | 8.90497 | 4676 ft | 209 kts | 158° |
| 2026-04-18 07:16 | 44.33002 | 8.91233 | 5227 ft | 211 kts | 159° |
| 2026-04-18 07:16 | 44.31627 | 8.91976 | 5773 ft | 213 kts | 158° |
| 2026-04-18 07:16 | 44.30237 | 8.92728 | 6311 ft | 215 kts | 158° |
| 2026-04-18 07:16 | 44.28829 | 8.93452 | 6834 ft | 217 kts | 167° |
| 2026-04-18 07:17 | 44.27343 | 8.93299 | 7296 ft | 219 kts | 205° |
| 2026-04-18 07:17 | 44.26049 | 8.92194 | 7804 ft | 219 kts | 214° |
| 2026-04-18 07:17 | 44.24778 | 8.90990 | 8309 ft | 222 kts | 214° |
| 2026-04-18 07:17 | 44.23476 | 8.89752 | 8624 ft | 236 kts | 214° |
| 2026-04-18 07:18 | 44.22070 | 8.88419 | 8857 ft | 252 kts | 214° |
| 2026-04-18 07:18 | 44.20600 | 8.87032 | 9420 ft | 257 kts | 214° |
| 2026-04-18 07:18 | 44.19112 | 8.85637 | 10124 ft | 258 kts | 214° |
| 2026-04-18 07:18 | 44.17613 | 8.84233 | 10715 ft | 261 kts | 214° |
| 2026-04-18 07:19 | 44.16095 | 8.82814 | 11309 ft | 265 kts | 214° |
| 2026-04-18 07:19 | 44.14430 | 8.81708 | 11894 ft | 269 kts | 190° |
| 2026-04-18 07:19 | 44.12557 | 8.81826 | 12380 ft | 278 kts | 160° |
| 2026-04-18 07:19 | 44.10852 | 8.83255 | 12577 ft | 298 kts | 139° |
| 2026-04-18 07:20 | 44.09230 | 8.85203 | 12755 ft | 320 kts | 138° |
| 2026-04-18 07:20 | 44.07490 | 8.87301 | 12934 ft | 341 kts | 139° |
| 2026-04-18 07:20 | 44.05633 | 8.89498 | 13093 ft | 362 kts | 139° |
| 2026-04-18 07:20 | 44.03663 | 8.91801 | 13431 ft | 375 kts | 139° |
| 2026-04-18 07:21 | 44.01641 | 8.94142 | 14032 ft | 381 kts | 139° |
| 2026-04-18 07:21 | 43.99595 | 8.96503 | 14644 ft | 384 kts | 139° |
| 2026-04-18 07:21 | 43.97534 | 8.98882 | 15308 ft | 387 kts | 139° |
| 2026-04-18 07:21 | 43.95455 | 9.01281 | 15943 ft | 390 kts | 139° |
| 2026-04-18 07:22 | 43.93356 | 9.03704 | 16551 ft | 395 kts | 139° |
| 2026-04-18 07:22 | 43.91238 | 9.06163 | 17153 ft | 399 kts | 139° |
| 2026-04-18 07:22 | 43.89104 | 9.08644 | 17762 ft | 403 kts | 139° |
| 2026-04-18 07:22 | 43.86973 | 9.11119 | 18360 ft | 407 kts | 139° |
| 2026-04-18 07:23 | 43.84798 | 9.13645 | 18883 ft | 410 kts | 139° |
| 2026-04-18 07:23 | 43.82600 | 9.16191 | 19421 ft | 413 kts | 139° |
| 2026-04-18 07:23 | 43.80390 | 9.18746 | 19974 ft | 416 kts | 139° |
| 2026-04-18 07:23 | 43.78161 | 9.21320 | 20522 ft | 418 kts | 139° |
| 2026-04-18 07:24 | 43.75915 | 9.23905 | 21019 ft | 422 kts | 139° |
| 2026-04-18 07:24 | 43.73652 | 9.26507 | 21527 ft | 425 kts | 139° |
| 2026-04-18 07:24 | 43.71370 | 9.29127 | 22037 ft | 427 kts | 139° |
| 2026-04-18 07:24 | 43.69074 | 9.31763 | 22538 ft | 430 kts | 139° |
| 2026-04-18 07:25 | 43.66765 | 9.34411 | 23024 ft | 433 kts | 139° |
| 2026-04-18 07:25 | 43.64436 | 9.37081 | 23506 ft | 436 kts | 139° |
| 2026-04-18 07:25 | 43.62095 | 9.39762 | 23917 ft | 439 kts | 139° |
| 2026-04-18 07:25 | 43.59736 | 9.42459 | 24303 ft | 442 kts | 139° |
| 2026-04-18 07:26 | 43.57360 | 9.45174 | 24690 ft | 444 kts | 139° |
| 2026-04-18 07:26 | 43.54972 | 9.47902 | 25072 ft | 447 kts | 139° |
| 2026-04-18 07:26 | 43.52570 | 9.50641 | 25439 ft | 449 kts | 139° |
| 2026-04-18 07:26 | 43.50152 | 9.53394 | 25805 ft | 452 kts | 139° |
| 2026-04-18 07:27 | 43.47720 | 9.56158 | 26170 ft | 454 kts | 139° |
| 2026-04-18 07:27 | 43.45276 | 9.58930 | 26521 ft | 457 kts | 139° |
| 2026-04-18 07:27 | 43.42819 | 9.61714 | 26868 ft | 459 kts | 139° |
| 2026-04-18 07:27 | 43.40347 | 9.64513 | 27217 ft | 461 kts | 139° |
| 2026-04-18 07:28 | 43.37862 | 9.67325 | 27535 ft | 464 kts | 139° |
| 2026-04-18 07:28 | 43.35366 | 9.70146 | 27850 ft | 466 kts | 140° |
| 2026-04-18 07:28 | 43.32852 | 9.72985 | 28176 ft | 468 kts | 140° |
| 2026-04-18 07:28 | 43.30334 | 9.75826 | 28493 ft | 470 kts | 140° |
| 2026-04-18 07:29 | 43.27796 | 9.78685 | 28792 ft | 473 kts | 140° |
| 2026-04-18 07:29 | 43.25284 | 9.81513 | 29119 ft | 474 kts | 140° |
| 2026-04-18 07:29 | 43.22738 | 9.84376 | 29587 ft | 472 kts | 140° |
| 2026-04-18 07:29 | 43.20202 | 9.87225 | 29922 ft | 473 kts | 140° |
| 2026-04-18 07:30 | 43.17652 | 9.90084 | 30137 ft | 472 kts | 140° |
| 2026-04-18 07:30 | 43.15119 | 9.92922 | 30322 ft | 470 kts | 140° |
| 2026-04-18 07:30 | 43.12592 | 9.95751 | 30446 ft | 469 kts | 140° |
| 2026-04-18 07:30 | 43.10063 | 9.98580 | 30563 ft | 469 kts | 140° |
| 2026-04-18 07:31 | 43.07540 | 10.01400 | 30684 ft | 469 kts | 140° |
| 2026-04-18 07:31 | 43.05011 | 10.04224 | 30806 ft | 468 kts | 140° |
| 2026-04-18 07:31 | 43.02487 | 10.07039 | 30935 ft | 468 kts | 140° |
| 2026-04-18 07:31 | 42.99967 | 10.09848 | 31054 ft | 468 kts | 140° |
| 2026-04-18 07:32 | 42.97438 | 10.12662 | 31175 ft | 469 kts | 140° |
| 2026-04-18 07:32 | 42.94903 | 10.15481 | 31372 ft | 471 kts | 140° |
| 2026-04-18 07:32 | 42.92367 | 10.18297 | 31716 ft | 470 kts | 140° |
| 2026-04-18 07:32 | 42.89837 | 10.21104 | 32097 ft | 468 kts | 140° |
| 2026-04-18 07:33 | 42.87321 | 10.23892 | 32467 ft | 466 kts | 140° |
| 2026-04-18 07:33 | 42.84792 | 10.26692 | 32589 ft | 470 kts | 140° |
| 2026-04-18 07:33 | 42.82259 | 10.29493 | 32723 ft | 468 kts | 140° |
| 2026-04-18 07:33 | 42.79735 | 10.32283 | 32853 ft | 466 kts | 140° |
| 2026-04-18 07:34 | 42.77220 | 10.35058 | 32979 ft | 465 kts | 140° |
| 2026-04-18 07:34 | 42.74718 | 10.37833 | 33092 ft | 465 kts | 137° |
| 2026-04-18 07:34 | 42.70466 | 10.44408 | 33128 ft | 463 kts | 123° |
| 2026-04-18 07:35 | 42.66820 | 10.51643 | 33161 ft | 468 kts | 122° |
| 2026-04-18 07:35 | 42.64984 | 10.55308 | 33313 ft | 471 kts | 122° |
| 2026-04-18 07:35 | 42.63134 | 10.58974 | 33615 ft | 470 kts | 122° |
| 2026-04-18 07:36 | 42.61908 | 10.61385 | 33857 ft | 468 kts | 123° |
| 2026-04-18 07:36 | 42.59426 | 10.66232 | 34286 ft | 466 kts | 123° |
| 2026-04-18 07:36 | 42.57592 | 10.69795 | 34483 ft | 467 kts | 123° |
| 2026-04-18 07:36 | 42.55727 | 10.73409 | 34675 ft | 468 kts | 123° |
| 2026-04-18 07:37 | 42.53859 | 10.77020 | 34911 ft | 468 kts | 123° |
| 2026-04-18 07:37 | 42.52596 | 10.79458 | 35070 ft | 467 kts | 123° |
| 2026-04-18 07:37 | 42.50730 | 10.83059 | 35299 ft | 467 kts | 123° |
| 2026-04-18 07:37 | 42.48254 | 10.87830 | 35577 ft | 467 kts | 123° |
| 2026-04-18 07:38 | 42.46991 | 10.90260 | 35732 ft | 467 kts | 123° |
| 2026-04-18 07:38 | 42.44516 | 10.95020 | 36008 ft | 467 kts | 123° |
| 2026-04-18 07:38 | 42.43253 | 10.97446 | 36141 ft | 466 kts | 123° |
| 2026-04-18 07:38 | 42.41384 | 11.01032 | 36357 ft | 466 kts | 123° |
| 2026-04-18 07:39 | 42.39513 | 11.04620 | 36484 ft | 468 kts | 123° |
| 2026-04-18 07:39 | 42.37659 | 11.08169 | 36623 ft | 468 kts | 123° |
| 2026-04-18 07:39 | 42.35778 | 11.11767 | 36743 ft | 468 kts | 123° |
| 2026-04-18 07:39 | 42.33902 | 11.15350 | 36861 ft | 466 kts | 123° |
| 2026-04-18 07:40 | 42.32030 | 11.18920 | 37004 ft | 465 kts | 123° |
| 2026-04-18 07:40 | 42.30160 | 11.22483 | 37081 ft | 466 kts | 123° |
| 2026-04-18 07:40 | 42.26396 | 11.29644 | 37095 ft | 468 kts | 123° |
| 2026-04-18 07:41 | 42.22626 | 11.36797 | 37094 ft | 467 kts | 123° |
| 2026-04-18 07:41 | 42.18858 | 11.43929 | 37095 ft | 467 kts | 123° |
| 2026-04-18 07:42 | 42.15089 | 11.51047 | 37088 ft | 466 kts | 123° |
| 2026-04-18 07:42 | 42.11320 | 11.58148 | 37085 ft | 465 kts | 123° |
| 2026-04-18 07:43 | 42.07553 | 11.65228 | 37085 ft | 465 kts | 123° |
| 2026-04-18 07:43 | 42.03785 | 11.72295 | 37107 ft | 465 kts | 123° |
| 2026-04-18 07:44 | 42.00015 | 11.79349 | 37154 ft | 464 kts | 123° |
| 2026-04-18 07:44 | 41.96240 | 11.86395 | 37200 ft | 464 kts | 123° |
| 2026-04-18 07:45 | 41.92463 | 11.93428 | 37244 ft | 464 kts | 123° |
| 2026-04-18 07:45 | 41.88679 | 12.00459 | 37273 ft | 465 kts | 123° |
| 2026-04-18 07:46 | 41.84887 | 12.07489 | 37284 ft | 465 kts | 123° |
| 2026-04-18 07:46 | 41.82989 | 12.11000 | 37078 ft | 465 kts | 123° |
| 2026-04-18 07:46 | 41.81091 | 12.14509 | 37078 ft | 466 kts | 123° |
| 2026-04-18 07:47 | 41.77276 | 12.21546 | 37078 ft | 466 kts | 123° |
| 2026-04-18 07:47 | 41.73457 | 12.28577 | 37078 ft | 467 kts | 124° |
| 2026-04-18 07:48 | 41.69627 | 12.35612 | 37081 ft | 468 kts | 123° |
| 2026-04-18 07:48 | 41.65785 | 12.42652 | 37072 ft | 469 kts | 124° |
| 2026-04-18 07:49 | 41.61936 | 12.49687 | 37081 ft | 469 kts | 124° |
| 2026-04-18 07:49 | 41.58081 | 12.56719 | 37077 ft | 469 kts | 124° |
| 2026-04-18 07:50 | 41.54218 | 12.63748 | 37074 ft | 469 kts | 124° |
| 2026-04-18 07:50 | 41.50352 | 12.70767 | 37074 ft | 469 kts | 124° |
| 2026-04-18 07:51 | 41.46485 | 12.77770 | 37071 ft | 469 kts | 124° |
| 2026-04-18 07:51 | 41.42616 | 12.84762 | 37071 ft | 468 kts | 124° |
| 2026-04-18 07:52 | 41.38744 | 12.91744 | 37071 ft | 468 kts | 124° |
| 2026-04-18 07:52 | 41.34897 | 12.98663 | 37077 ft | 468 kts | 124° |
| 2026-04-18 07:53 | 41.31022 | 13.05619 | 37069 ft | 468 kts | 124° |
| 2026-04-18 07:53 | 41.27143 | 13.12566 | 37072 ft | 468 kts | 124° |
| 2026-04-18 07:54 | 41.23260 | 13.19505 | 37071 ft | 468 kts | 124° |
| 2026-04-18 07:54 | 41.19374 | 13.26433 | 37074 ft | 468 kts | 124° |
| 2026-04-18 07:55 | 41.15483 | 13.33353 | 37073 ft | 468 kts | 124° |
| 2026-04-18 07:55 | 41.11585 | 13.40272 | 37072 ft | 468 kts | 124° |
| 2026-04-18 07:56 | 41.07677 | 13.47191 | 37068 ft | 469 kts | 124° |
| 2026-04-18 07:56 | 41.03761 | 13.54110 | 37072 ft | 469 kts | 124° |
| 2026-04-18 07:57 | 40.99836 | 13.61030 | 37067 ft | 470 kts | 124° |
| 2026-04-18 07:57 | 40.95904 | 13.67946 | 37064 ft | 471 kts | 124° |
| 2026-04-18 07:58 | 40.89989 | 13.78321 | 37058 ft | 471 kts | 124° |
| 2026-04-18 07:59 | 40.86035 | 13.85236 | 37056 ft | 472 kts | 124° |
| 2026-04-18 07:59 | 40.82077 | 13.92144 | 37057 ft | 472 kts | 124° |
| 2026-04-18 08:00 | 40.78110 | 13.99051 | 37072 ft | 472 kts | 124° |
| 2026-04-18 08:00 | 40.74137 | 14.05956 | 37070 ft | 473 kts | 124° |
| 2026-04-18 08:01 | 40.70156 | 14.12857 | 37066 ft | 473 kts | 124° |
| 2026-04-18 08:01 | 40.66173 | 14.19749 | 37068 ft | 473 kts | 125° |
| 2026-04-18 08:02 | 40.62208 | 14.26595 | 37062 ft | 473 kts | 125° |
| 2026-04-18 08:02 | 40.58167 | 14.33432 | 37063 ft | 474 kts | 129° |
| 2026-04-18 08:03 | 40.53323 | 14.39348 | 37061 ft | 476 kts | 137° |
| 2026-04-18 08:03 | 40.48286 | 14.44998 | 37048 ft | 476 kts | 137° |
| 2026-04-18 08:04 | 40.43273 | 14.50678 | 37056 ft | 476 kts | 137° |
| 2026-04-18 08:04 | 40.38287 | 14.56387 | 37059 ft | 475 kts | 137° |
| 2026-04-18 08:05 | 40.33309 | 14.62092 | 37052 ft | 476 kts | 137° |
| 2026-04-18 08:05 | 40.28322 | 14.67792 | 37054 ft | 476 kts | 137° |
| 2026-04-18 08:06 | 40.23335 | 14.73478 | 37064 ft | 475 kts | 137° |
| 2026-04-18 08:06 | 40.18345 | 14.79158 | 37061 ft | 475 kts | 137° |
| 2026-04-18 08:07 | 40.13350 | 14.84828 | 37052 ft | 475 kts | 137° |
| 2026-04-18 08:07 | 40.08389 | 14.90441 | 36719 ft | 464 kts | 137° |
| 2026-04-18 08:07 | 40.05961 | 14.93183 | 35902 ft | 462 kts | 137° |
| 2026-04-18 08:08 | 40.03523 | 14.95938 | 34924 ft | 465 kts | 137° |
| 2026-04-18 08:08 | 40.01063 | 14.98716 | 33893 ft | 472 kts | 137° |
| 2026-04-18 08:08 | 39.98587 | 15.01508 | 33306 ft | 467 kts | 137° |
| 2026-04-18 08:08 | 39.96145 | 15.04258 | 32775 ft | 461 kts | 137° |
| 2026-04-18 08:09 | 39.93733 | 15.06971 | 32304 ft | 454 kts | 137° |
| 2026-04-18 08:09 | 39.91389 | 15.09605 | 31857 ft | 448 kts | 137° |
| 2026-04-18 08:09 | 39.89018 | 15.12268 | 31419 ft | 441 kts | 137° |
| 2026-04-18 08:09 | 39.86738 | 15.14826 | 31000 ft | 435 kts | 137° |
| 2026-04-18 08:10 | 39.84429 | 15.17415 | 30572 ft | 429 kts | 137° |
| 2026-04-18 08:10 | 39.82213 | 15.19898 | 30170 ft | 424 kts | 137° |
| 2026-04-18 08:10 | 39.79965 | 15.22415 | 29692 ft | 419 kts | 137° |
| 2026-04-18 08:10 | 39.77802 | 15.24836 | 29266 ft | 412 kts | 137° |
| 2026-04-18 08:11 | 39.75613 | 15.27283 | 28834 ft | 406 kts | 137° |
| 2026-04-18 08:11 | 39.73505 | 15.29637 | 28419 ft | 406 kts | 137° |
| 2026-04-18 08:11 | 39.71308 | 15.32090 | 28017 ft | 418 kts | 137° |
| 2026-04-18 08:11 | 39.69098 | 15.34560 | 27576 ft | 427 kts | 137° |
| 2026-04-18 08:12 | 39.66863 | 15.37057 | 27105 ft | 421 kts | 137° |
| 2026-04-18 08:12 | 39.64658 | 15.39519 | 26662 ft | 414 kts | 137° |
| 2026-04-18 08:12 | 39.62489 | 15.41939 | 26234 ft | 408 kts | 137° |
| 2026-04-18 08:12 | 39.60353 | 15.44321 | 25813 ft | 402 kts | 137° |
| 2026-04-18 08:13 | 39.58248 | 15.46668 | 25394 ft | 397 kts | 137° |
| 2026-04-18 08:13 | 39.56167 | 15.48986 | 24980 ft | 392 kts | 137° |
| 2026-04-18 08:13 | 39.54109 | 15.51278 | 24564 ft | 388 kts | 137° |
| 2026-04-18 08:13 | 39.52073 | 15.53543 | 24132 ft | 385 kts | 137° |
| 2026-04-18 08:14 | 39.50045 | 15.55797 | 23716 ft | 383 kts | 137° |
| 2026-04-18 08:14 | 39.48024 | 15.58042 | 23240 ft | 383 kts | 137° |
| 2026-04-18 08:14 | 39.45981 | 15.60311 | 22804 ft | 391 kts | 137° |
| 2026-04-18 08:14 | 39.43905 | 15.62615 | 22362 ft | 394 kts | 137° |
| 2026-04-18 08:15 | 39.41835 | 15.64908 | 21906 ft | 388 kts | 137° |
| 2026-04-18 08:15 | 39.39798 | 15.67160 | 21473 ft | 382 kts | 137° |
| 2026-04-18 08:15 | 39.37790 | 15.69380 | 21050 ft | 377 kts | 137° |
| 2026-04-18 08:15 | 39.35813 | 15.71566 | 20652 ft | 371 kts | 137° |
| 2026-04-18 08:16 | 39.33864 | 15.73719 | 20255 ft | 366 kts | 137° |
| 2026-04-18 08:16 | 39.31940 | 15.75844 | 19871 ft | 361 kts | 138° |
| 2026-04-18 08:16 | 39.30041 | 15.77937 | 19492 ft | 357 kts | 138° |
| 2026-04-18 08:16 | 39.28164 | 15.80005 | 19118 ft | 354 kts | 138° |
| 2026-04-18 08:17 | 39.26288 | 15.82053 | 18760 ft | 352 kts | 138° |
| 2026-04-18 08:17 | 39.24409 | 15.84080 | 18403 ft | 354 kts | 139° |
| 2026-04-18 08:17 | 39.22495 | 15.86144 | 18000 ft | 364 kts | 139° |
| 2026-04-18 08:17 | 39.20543 | 15.88250 | 17567 ft | 365 kts | 138° |
| 2026-04-18 08:18 | 39.18668 | 15.90426 | 17134 ft | 360 kts | 134° |
| 2026-04-18 08:18 | 39.16904 | 15.92671 | 16729 ft | 354 kts | 133° |
| 2026-04-18 08:18 | 39.15187 | 15.94914 | 16339 ft | 349 kts | 133° |
| 2026-04-18 08:18 | 39.13499 | 15.97122 | 15960 ft | 344 kts | 133° |
| 2026-04-18 08:19 | 39.11852 | 15.99262 | 15595 ft | 339 kts | 133° |
| 2026-04-18 08:19 | 39.10197 | 16.01398 | 15230 ft | 335 kts | 133° |
| 2026-04-18 08:19 | 39.08557 | 16.03504 | 14869 ft | 332 kts | 133° |
| 2026-04-18 08:19 | 39.06924 | 16.05595 | 14516 ft | 331 kts | 133° |
| 2026-04-18 08:20 | 39.05286 | 16.07688 | 14162 ft | 334 kts | 133° |
| 2026-04-18 08:20 | 39.03615 | 16.09820 | 13781 ft | 342 kts | 133° |
| 2026-04-18 08:20 | 39.01924 | 16.11975 | 13362 ft | 342 kts | 133° |
| 2026-04-18 08:20 | 39.00248 | 16.14107 | 12950 ft | 336 kts | 133° |
| 2026-04-18 08:21 | 38.98597 | 16.16205 | 12570 ft | 331 kts | 133° |
| 2026-04-18 08:21 | 38.96973 | 16.18268 | 12203 ft | 326 kts | 133° |
| 2026-04-18 08:21 | 38.95375 | 16.20298 | 11841 ft | 321 kts | 133° |
| 2026-04-18 08:21 | 38.93795 | 16.22303 | 11481 ft | 317 kts | 133° |
| 2026-04-18 08:22 | 38.92238 | 16.24278 | 11123 ft | 314 kts | 133° |
| 2026-04-18 08:22 | 38.90692 | 16.26254 | 10771 ft | 314 kts | 130° |
| 2026-04-18 08:22 | 38.89465 | 16.28539 | 10529 ft | 308 kts | 116° |
| 2026-04-18 08:22 | 38.88789 | 16.30138 | 10429 ft | 309 kts | 116° |
| 2026-04-18 08:23 | 38.87445 | 16.33373 | 10224 ft | 301 kts | 116° |
| 2026-04-18 08:23 | 38.86472 | 16.35694 | 10089 ft | 290 kts | 116° |
| 2026-04-18 08:23 | 38.85841 | 16.37186 | 10003 ft | 284 kts | 116° |
| 2026-04-18 08:23 | 38.84903 | 16.39391 | 9721 ft | 280 kts | 116° |
| 2026-04-18 08:24 | 38.83972 | 16.41567 | 9432 ft | 277 kts | 116° |
| 2026-04-18 08:24 | 38.83049 | 16.43714 | 9159 ft | 273 kts | 116° |
| 2026-04-18 08:24 | 38.82138 | 16.45830 | 8874 ft | 269 kts | 116° |
| 2026-04-18 08:24 | 38.81242 | 16.47904 | 8612 ft | 264 kts | 116° |
| 2026-04-18 08:25 | 38.80360 | 16.49943 | 8357 ft | 260 kts | 116° |
| 2026-04-18 08:25 | 38.79480 | 16.51978 | 8098 ft | 262 kts | 116° |
| 2026-04-18 08:25 | 38.78633 | 16.54011 | 7844 ft | 264 kts | 108° |
| 2026-04-18 08:25 | 38.78234 | 16.56336 | 7600 ft | 266 kts | 94° |
| 2026-04-18 08:26 | 38.77975 | 16.58706 | 7330 ft | 268 kts | 95° |
| 2026-04-18 08:26 | 38.77817 | 16.61023 | 7175 ft | 254 kts | 80° |
| 2026-04-18 08:26 | 38.78372 | 16.63036 | 7057 ft | 236 kts | 53° |
| 2026-04-18 08:26 | 38.79496 | 16.64498 | 6818 ft | 228 kts | 32° |
| 2026-04-18 08:27 | 38.80899 | 16.65334 | 6579 ft | 219 kts | 13° |
| 2026-04-18 08:27 | 38.82332 | 16.65689 | 6378 ft | 201 kts | 8° |
| 2026-04-18 08:27 | 38.83675 | 16.65826 | 6106 ft | 189 kts | 350° |
| 2026-04-18 08:27 | 38.84722 | 16.64926 | 5996 ft | 193 kts | 304° |
| 2026-04-18 08:28 | 38.85287 | 16.63288 | 5755 ft | 203 kts | 296° |
| 2026-04-18 08:28 | 38.85764 | 16.61624 | 5509 ft | 194 kts | 292° |
| 2026-04-18 08:28 | 38.86152 | 16.60010 | 5246 ft | 185 kts | 291° |
| 2026-04-18 08:28 | 38.86489 | 16.58440 | 5009 ft | 181 kts | 288° |
| 2026-04-18 08:29 | 38.86748 | 16.56865 | 4793 ft | 180 kts | 285° |
| 2026-04-18 08:29 | 38.86961 | 16.55271 | 4556 ft | 182 kts | 284° |
| 2026-04-18 08:29 | 38.87145 | 16.53657 | 4297 ft | 182 kts | 283° |
| 2026-04-18 08:29 | 38.87335 | 16.52057 | 4070 ft | 181 kts | 283° |
| 2026-04-18 08:30 | 38.87524 | 16.50454 | 3829 ft | 181 kts | 282° |
| 2026-04-18 08:30 | 38.87704 | 16.48871 | 3578 ft | 176 kts | 281° |
| 2026-04-18 08:30 | 38.87880 | 16.47336 | 3369 ft | 174 kts | 282° |
| 2026-04-18 08:30 | 38.88057 | 16.45782 | 3136 ft | 177 kts | 281° |
| 2026-04-18 08:31 | 38.88234 | 16.44229 | 2887 ft | 175 kts | 281° |
| 2026-04-18 08:31 | 38.88410 | 16.42696 | 2657 ft | 174 kts | 280° |
| 2026-04-18 08:31 | 38.88585 | 16.41190 | 2436 ft | 168 kts | 278° |
| 2026-04-18 08:31 | 38.88755 | 16.39687 | 2192 ft | 171 kts | 277° |
| 2026-04-18 08:32 | 38.88929 | 16.38170 | 1981 ft | 174 kts | 277° |
| 2026-04-18 08:32 | 38.89104 | 16.36644 | 1733 ft | 173 kts | 277° |
| 2026-04-18 08:32 | 38.89282 | 16.35100 | 1495 ft | 170 kts | 276° |
| 2026-04-18 08:32 | 38.89444 | 16.33686 | 1285 ft | 152 kts | 278° |
| 2026-04-18 08:33 | 38.89597 | 16.32372 | 1086 ft | 146 kts | 277° |
| 2026-04-18 08:33 | 38.89739 | 16.31126 | 893 ft | 141 kts | 276° |
| 2026-04-18 08:33 | 38.89887 | 16.29878 | 704 ft | 144 kts | 277° |
| 2026-04-18 08:33 | 38.90036 | 16.28559 | 486 ft | 153 kts | 277° |
| 2026-04-18 08:34 | 38.90191 | 16.27231 | 316 ft | 148 kts | 275° |
| 2026-04-18 08:34 | 38.90342 | 16.25932 | 106 ft | 142 kts | 275° |
| 2026-04-18 08:34 | 38.90476 | 16.24760 | 43 ft | 119 kts | 279° |
| 2026-04-18 08:34 | 38.90574 | 16.23917 | 34 ft | 58 kts | 277° |
| 2026-04-18 08:35 | 38.90661 | 16.23620 | 32 ft | 23 kts | 308° |
| 2026-04-18 08:35 | 38.90742 | 16.23501 | 32 ft | 16 kts | 336° |
| 2026-04-18 08:35 | 38.90828 | 16.23538 | 32 ft | 14 kts | 69° |
| 2026-04-18 08:35 | 38.90826 | 16.23659 | 33 ft | 13 kts | 96° |
| 2026-04-18 08:36 | 38.90815 | 16.23775 | 34 ft | 13 kts | 103° |
| 2026-04-18 08:36 | 38.90798 | 16.23887 | 35 ft | 13 kts | 98° |
| 2026-04-18 08:36 | 38.90787 | 16.23997 | 35 ft | 12 kts | 98° |
| 2026-04-18 08:36 | 38.90776 | 16.24104 | 36 ft | 12 kts | 92° |
| 2026-04-18 08:37 | 38.90805 | 16.24199 | 36 ft | 11 kts | 53° |
| 2026-04-18 08:37 | 38.90828 | 16.24293 | 38 ft | 11 kts | 93° |
| 2026-04-18 08:37 | 38.90818 | 16.24390 | 38 ft | 11 kts | 98° |
| 2026-04-18 08:37 | 38.90811 | 16.24466 | 39 ft | 8 kts | 87° |
| 2026-04-18 08:38 | 38.90825 | 16.24510 | 39 ft | 5 kts | 63° |
| 2026-04-18 08:38 | 38.90845 | 16.24543 | 40 ft | 5 kts | 42° |
| 2026-04-18 08:38 | 38.90864 | 16.24548 | 40 ft | 0 kts | 329° |